Time;durP1;ratioP1;P1;durP2;ratioP2;P2;SDS_P1;SDS_P2;PMS_P1;PMS_P2;Temp;Humidity;BMP_temperature;BMP_pressure;BME280_temperature;BME280_humidity;BME280_pressure;Samples;Min_cycle;Max_cycle;Signal;HPM_P1;HPM_P2
2022/08/19 00:00:13;;;;;;;14.48;12.70;;;;;;;20.18;71.25;101282.38;5045697;28;20033;-60
2022/08/19 00:02:39;;;;;;;15.18;13.57;;;;;;;20.13;71.18;101280.66;5040782;28;20383;-59
2022/08/19 00:05:05;;;;;;;14.50;12.40;;;;;;;20.08;71.18;101282.44;5048364;28;20029;-59
2022/08/19 00:07:30;;;;;;;14.05;12.38;;;;;;;20.08;71.24;101277.16;5030403;28;20036;-59
2022/08/19 00:09:55;;;;;;;13.65;12.23;;;;;;;20.06;71.28;101281.59;5045474;28;20028;-59
2022/08/19 00:12:21;;;;;;;14.98;13.35;;;;;;;20.02;71.07;101281.63;5042834;28;20052;-60
2022/08/19 00:14:46;;;;;;;15.93;11.60;;;;;;;19.97;71.05;101281.66;5042984;28;20078;-59
2022/08/19 00:17:12;;;;;;;13.55;12.15;;;;;;;19.91;71.54;101282.56;5047647;28;20087;-59
2022/08/19 00:19:38;;;;;;;12.80;11.40;;;;;;;19.86;71.36;101273.81;5048177;28;20458;-59
2022/08/19 00:22:04;;;;;;;14.20;10.85;;;;;;;19.84;71.50;101278.22;5047904;28;20039;-59
2022/08/19 00:24:30;;;;;;;13.32;11.23;;;;;;;19.82;71.41;101273.88;5038986;28;20029;-59
2022/08/19 00:26:56;;;;;;;13.45;11.43;;;;;;;19.77;71.78;101272.09;5044558;28;20076;-59
2022/08/19 00:29:23;;;;;;;14.68;11.90;;;;;;;19.75;71.52;101275.63;5045842;28;20033;-59
2022/08/19 00:31:52;;;;;;;16.20;12.35;;;;;;;19.75;71.81;101273.84;5045050;28;21879;-59
2022/08/19 00:34:18;;;;;;;15.30;12.55;;;;;;;19.68;72.11;101273.91;5045082;28;20431;-59
2022/08/19 00:36:44;;;;;;;15.90;13.15;;;;;;;19.68;72.29;101281.84;5047184;28;20534;-59
2022/08/19 00:39:10;;;;;;;16.35;12.45;;;;;;;19.63;72.64;101279.25;5044749;28;20056;-59
2022/08/19 00:41:36;;;;;;;15.07;12.65;;;;;;;19.60;72.26;101279.28;5043243;28;20087;-59
2022/08/19 00:44:04;;;;;;;18.50;11.50;;;;;;;19.59;72.00;101278.38;5044812;28;20472;-59
2022/08/19 00:46:30;;;;;;;16.27;11.70;;;;;;;19.54;71.83;101282.84;5045360;28;20040;-61
2022/08/19 00:48:57;;;;;;;17.75;11.95;;;;;;;19.50;71.41;101277.59;5043263;28;20500;-59
2022/08/19 00:51:26;;;;;;;18.90;12.27;;;;;;;19.45;71.61;101281.13;5047970;28;20039;-59
2022/08/19 00:53:54;;;;;;;18.45;14.23;;;;;;;19.45;71.66;101288.16;5051057;28;20021;-59
2022/08/19 00:56:19;;;;;;;19.40;13.68;;;;;;;19.44;71.95;101283.78;5049007;28;20024;-59
2022/08/19 00:58:44;;;;;;;19.55;14.30;;;;;;;19.42;71.63;101280.25;5051582;28;20039;-60
2022/08/19 01:01:10;;;;;;;17.42;14.45;;;;;;;19.41;71.72;101282.03;5047708;28;20033;-59
2022/08/19 01:03:35;;;;;;;20.17;14.52;;;;;;;19.37;72.47;101279.41;5049943;28;20029;-59
2022/08/19 01:06:01;;;;;;;21.33;16.38;;;;;;;19.34;72.64;101272.38;5049055;28;20083;-59
2022/08/19 01:08:26;;;;;;;22.25;18.30;;;;;;;19.35;73.16;101273.25;5050375;28;20032;-59
2022/08/19 01:10:59;;;;;;;19.67;15.30;;;;;;;19.33;72.70;101275.91;5046721;28;20033;-60
2022/08/19 01:13:27;;;;;;;21.65;17.08;;;;;;;19.32;72.93;101281.19;5048523;28;20484;-60
2022/08/19 01:16:02;;;;;;;23.38;20.02;;;;;;;19.31;73.42;101287.38;5046970;28;20499;-59
2022/08/19 01:18:30;;;;;;;25.65;21.15;;;;;;;19.32;73.71;101281.19;5045061;28;20033;-59
2022/08/19 01:21:01;;;;;;;23.75;19.80;;;;;;;19.27;73.57;101282.09;5046547;28;20037;-60
2022/08/19 01:23:42;;;;;;;23.48;17.77;;;;;;;19.24;73.40;101276.84;5046330;28;20036;-59
2022/08/19 01:26:11;;;;;;;20.92;16.33;;;;;;;19.19;72.90;101273.34;5051069;28;20021;-59
2022/08/19 01:28:36;;;;;;;18.73;15.25;;;;;;;19.14;72.55;101269.84;5046881;28;20029;-59
2022/08/19 01:31:02;;;;;;;21.73;15.55;;;;;;;19.11;72.47;101272.50;5040623;28;20034;-59
2022/08/19 01:33:30;;;;;;;18.27;15.13;;;;;;;19.04;72.86;101273.41;5043451;28;20669;-59
2022/08/19 01:36:11;;;;;;;18.90;15.07;;;;;;;19.01;73.05;101270.78;5049691;28;20410;-59
2022/08/19 01:38:41;;;;;;;18.83;14.80;;;;;;;18.92;72.78;101267.31;5051866;28;20028;-60
2022/08/19 01:41:06;;;;;;;18.77;14.85;;;;;;;18.90;72.85;101273.47;5042818;28;20041;-59
2022/08/19 01:43:32;;;;;;;18.35;14.73;;;;;;;18.87;73.11;101274.38;5048227;28;20025;-59
2022/08/19 01:45:58;;;;;;;17.52;13.57;;;;;;;18.84;73.13;101263.81;5045106;28;20128;-59
2022/08/19 01:48:23;;;;;;;18.27;14.50;;;;;;;18.81;73.98;101270.84;5041146;28;20539;-60
2022/08/19 01:50:49;;;;;;;18.40;14.80;;;;;;;18.75;73.12;101271.75;5049225;28;20595;-59
2022/08/19 01:53:14;;;;;;;18.65;15.05;;;;;;;18.74;73.39;101267.34;5048226;28;20025;-59
2022/08/19 01:55:42;;;;;;;19.45;15.07;;;;;;;18.72;73.42;101266.47;5043251;28;20028;-60
2022/08/19 01:58:14;;;;;;;23.17;16.90;;;;;;;18.71;73.84;101277.91;5047549;28;20025;-59
2022/08/19 02:00:40;;;;;;;23.75;17.45;;;;;;;18.69;74.29;101272.63;5048545;28;20512;-60
2022/08/19 02:03:06;;;;;;;21.75;16.60;;;;;;;18.70;73.78;101277.03;5049251;28;20412;-60
2022/08/19 02:05:31;;;;;;;22.20;15.77;;;;;;;18.68;73.73;101276.16;5029180;28;20044;-60
2022/08/19 02:07:57;;;;;;;21.13;16.15;;;;;;;18.61;74.57;101285.00;5051128;28;20159;-59
2022/08/19 02:10:23;;;;;;;23.60;15.85;;;;;;;18.62;73.85;101286.72;5048769;28;20040;-59
2022/08/19 02:12:49;;;;;;;24.58;17.73;;;;;;;18.55;75.58;101285.88;5049823;28;20031;-60
2022/08/19 02:15:15;;;;;;;29.42;20.30;;;;;;;18.53;76.60;101292.91;5047853;28;20024;-59
2022/08/19 02:17:41;;;;;;;27.85;20.27;;;;;;;18.54;75.89;101294.69;5048097;28;20443;-59
2022/08/19 02:20:07;;;;;;;27.80;20.38;;;;;;;18.54;76.70;101299.94;5040921;28;20051;-60
2022/08/19 02:22:33;;;;;;;31.02;21.33;;;;;;;18.57;76.24;101296.44;5047381;28;20114;-59
2022/08/19 02:24:58;;;;;;;28.63;21.20;;;;;;;18.59;77.07;101287.59;5048650;28;20060;-59
2022/08/19 02:27:25;;;;;;;27.58;21.65;;;;;;;18.59;76.64;101289.38;5049721;28;20460;-59
2022/08/19 02:29:51;;;;;;;29.05;21.20;;;;;;;18.63;75.94;101299.06;5041881;28;20043;-59
2022/08/19 02:32:21;;;;;;;27.30;21.42;;;;;;;18.63;76.68;101303.47;5041113;28;20024;-59
2022/08/19 02:34:47;;;;;;;31.83;24.50;;;;;;;18.60;78.97;101302.56;5048795;28;20455;-59
2022/08/19 02:39:57;;;;;;;29.73;23.27;;;;;;;18.63;77.53;101308.75;5049028;28;20040;-59
2022/08/19 02:42:23;;;;;;;28.73;21.48;;;;;;;18.63;77.60;101306.09;5048850;28;20056;-59
2022/08/19 02:44:48;;;;;;;31.92;23.13;;;;;;;18.62;78.59;101301.69;5045081;28;20037;-60
2022/08/19 02:47:14;;;;;;;27.83;22.20;;;;;;;18.64;78.36;101306.09;5047783;28;20075;-59
2022/08/19 02:49:40;;;;;;;30.13;21.85;;;;;;;18.61;78.56;101306.09;5046062;28;20032;-59
2022/08/19 02:52:05;;;;;;;27.88;21.30;;;;;;;18.59;78.38;101319.28;5044904;28;20064;-59
2022/08/19 02:54:31;;;;;;;27.65;21.90;;;;;;;18.57;78.45;101317.56;5038009;28;20017;-59
2022/08/19 02:56:56;;;;;;;28.85;22.63;;;;;;;18.54;78.74;101323.72;5044117;28;20520;-60
2022/08/19 02:59:21;;;;;;;28.88;21.48;;;;;;;18.54;77.82;101322.84;5049093;28;20393;-59
2022/08/19 03:01:47;;;;;;;32.42;22.13;;;;;;;18.53;77.37;101314.03;5049179;28;20037;-59
2022/08/19 03:04:15;;;;;;;31.58;21.40;;;;;;;18.54;77.04;101318.44;5023175;28;20029;-59
2022/08/19 03:06:42;;;;;;;28.33;21.50;;;;;;;18.51;76.59;101305.25;5045631;28;20029;-59
2022/08/19 03:09:08;;;;;;;30.75;21.85;;;;;;;18.48;77.36;101310.53;5048372;28;20071;-59
2022/08/19 03:11:34;;;;;;;28.40;21.90;;;;;;;18.47;76.95;101306.13;5042677;28;20032;-59
2022/08/19 03:14:01;;;;;;;29.65;22.08;;;;;;;18.46;77.00;101304.34;5047458;28;20474;-59
2022/08/19 03:16:29;;;;;;;28.70;22.00;;;;;;;18.48;76.57;101309.63;5047010;28;20040;-60
2022/08/19 03:18:59;;;;;;;28.88;22.38;;;;;;;18.47;77.11;101314.03;5046783;28;20045;-59
2022/08/19 03:21:26;;;;;;;30.67;22.08;;;;;;;18.46;77.40;101312.28;5040730;28;20480;-59
2022/08/19 03:23:57;;;;;;;31.27;23.33;;;;;;;18.43;78.04;101317.56;5044734;28;20021;-59
2022/08/19 03:26:22;;;;;;;30.95;23.77;;;;;;;18.45;77.78;101307.91;5037176;28;20037;-59
2022/08/19 03:28:49;;;;;;;31.70;23.58;;;;;;;18.46;77.27;101307.00;5047557;28;20020;-59
2022/08/19 03:31:23;;;;;;;33.78;24.70;;;;;;;18.42;77.62;101308.78;5048258;28;20071;-59
2022/08/19 03:33:50;;;;;;;31.98;24.02;;;;;;;18.42;77.35;101311.41;5049145;28;20541;-59
2022/08/19 03:36:22;;;;;;;32.40;23.58;;;;;;;18.41;77.54;101311.41;5027943;28;20484;-59
2022/08/19 03:38:51;;;;;;;33.95;25.10;;;;;;;18.41;77.58;101314.06;5047554;28;20134;-59
2022/08/19 03:41:23;;;;;;;33.97;26.10;;;;;;;18.40;77.75;101302.59;5042227;28;20105;-59
2022/08/19 03:43:49;;;;;;;31.75;24.10;;;;;;;18.39;77.53;101294.69;5045224;28;20025;-59
2022/08/19 03:46:17;;;;;;;29.63;22.52;;;;;;;18.38;77.00;101292.97;5043350;28;20387;-59
2022/08/19 03:48:43;;;;;;;32.85;24.25;;;;;;;18.38;77.07;101291.19;5042645;28;20097;-60
2022/08/19 03:51:18;;;;;;;32.47;24.30;;;;;;;18.39;76.62;101290.31;5041977;28;20033;-59
2022/08/19 03:53:44;;;;;;;36.85;27.00;;;;;;;18.38;77.23;101292.97;5047442;28;20075;-59
2022/08/19 03:56:09;;;;;;;35.88;25.95;;;;;;;18.36;77.10;101300.84;5020824;28;20033;-59
2022/08/19 03:58:37;;;;;;;37.10;28.23;;;;;;;18.31;78.66;101294.72;5048135;28;20029;-59
2022/08/19 04:01:09;;;;;;;35.70;25.73;;;;;;;18.32;77.59;101292.94;5047334;28;20071;-59
2022/08/19 04:03:35;;;;;;;40.35;28.67;;;;;;;18.29;78.50;101300.88;5035943;28;20495;-59
2022/08/19 04:06:26;;;;;;;36.40;26.85;;;;;;;18.30;77.75;101300.00;5045720;28;20021;-59
2022/08/19 04:08:56;;;;;;;35.15;25.98;;;;;;;18.28;78.19;101296.47;5033297;28;20072;-59
2022/08/19 04:11:24;;;;;;;35.22;25.65;;;;;;;18.24;77.92;101301.75;5038892;28;20060;-56
2022/08/19 04:13:52;;;;;;;34.47;25.97;;;;;;;18.25;77.48;101298.25;5045097;28;20695;-59
2022/08/19 04:16:19;;;;;;;37.22;27.48;;;;;;;18.24;77.60;101299.09;5049034;28;20349;-59
2022/08/19 04:18:46;;;;;;;37.83;28.80;;;;;;;18.21;78.35;101296.47;5047786;28;20021;-59
2022/08/19 04:21:20;;;;;;;33.35;25.95;;;;;;;18.21;77.66;101299.13;5041053;28;20028;-58
2022/08/19 04:23:46;;;;;;;37.53;28.20;;;;;;;18.22;77.38;101300.00;5045929;28;20116;-59
2022/08/19 04:26:18;;;;;;;37.75;27.08;;;;;;;18.20;77.33;101297.34;5042165;28;20036;-59
2022/08/19 04:28:44;;;;;;;36.10;26.45;;;;;;;18.19;77.42;101295.63;5050006;28;20029;-59
2022/08/19 04:31:17;;;;;;;40.17;26.52;;;;;;;18.17;76.95;101293.84;5052188;28;20059;-60
2022/08/19 04:33:42;;;;;;;34.92;24.98;;;;;;;18.13;76.76;101286.81;5049922;28;20023;-60
2022/08/19 04:36:16;;;;;;;35.63;26.35;;;;;;;18.09;76.80;101288.59;5039356;28;20033;-60
2022/08/19 04:38:42;;;;;;;35.92;25.48;;;;;;;18.02;77.00;101286.84;5046345;28;20025;-59
2022/08/19 04:43:51;;;;;;;32.33;23.60;;;;;;;18.00;76.16;101291.22;5046361;28;20040;-60
2022/08/19 04:46:17;;;;;;;34.55;25.15;;;;;;;17.97;76.04;101285.94;5049948;28;20028;-59
2022/08/19 04:48:43;;;;;;;31.63;24.30;;;;;;;17.95;76.05;101292.97;5050906;28;20206;-59
2022/08/19 04:51:12;;;;;;;35.08;24.98;;;;;;;17.92;76.30;101285.94;5048492;28;20025;-59
2022/08/19 04:53:39;;;;;;;35.15;26.42;;;;;;;17.91;75.80;101297.34;5046363;28;20028;-59
2022/08/19 04:56:12;;;;;;;32.40;25.15;;;;;;;17.85;76.28;101305.25;5048690;28;20381;-59
2022/08/19 04:58:39;;;;;;;34.45;24.50;;;;;;;17.85;76.02;101308.75;5051113;28;20037;-59
2022/08/19 05:01:05;;;;;;;32.92;24.65;;;;;;;17.82;76.18;101307.88;5038184;28;20021;-58
2022/08/19 05:03:33;;;;;;;31.70;23.75;;;;;;;17.78;75.92;101304.34;5040084;28;20021;-59
2022/08/19 05:06:09;;;;;;;29.50;21.97;;;;;;;17.77;76.03;101310.50;5046220;28;20039;-59
2022/08/19 05:08:36;;;;;;;28.38;22.33;;;;;;;17.75;75.79;101316.66;5045539;28;20836;-59
2022/08/19 05:11:09;;;;;;;25.55;20.30;;;;;;;17.73;76.00;101324.56;5043534;28;20079;-59
2022/08/19 05:13:35;;;;;;;29.15;23.00;;;;;;;17.67;76.21;101319.25;5049382;28;20111;-60
2022/08/19 05:16:00;;;;;;;36.80;24.85;;;;;;;17.68;76.41;101324.56;5050204;28;20060;-60
2022/08/19 05:23:57;;;;;;;33.03;24.92;;;;;;;17.65;77.59;101334.19;5044647;28;20542;-59
2022/08/19 05:26:25;;;;;;;34.88;25.15;;;;;;;17.64;77.72;101346.50;5050119;28;20029;-59
2022/08/19 05:28:51;;;;;;;39.10;28.17;;;;;;;17.62;78.12;101342.09;5049112;28;20031;-59
2022/08/19 05:31:17;;;;;;;38.67;28.23;;;;;;;17.63;78.05;101349.13;5048646;28;20036;-59
2022/08/19 05:33:42;;;;;;;39.97;28.40;;;;;;;17.63;78.74;101352.66;5041751;28;20482;-59
2022/08/19 05:36:07;;;;;;;47.58;32.40;;;;;;;17.62;80.00;101350.88;5046020;28;20036;-59
2022/08/19 05:38:35;;;;;;;45.65;31.77;;;;;;;17.63;80.11;101359.69;5045693;28;20391;-59
2022/08/19 05:41:06;;;;;;;48.78;31.75;;;;;;;17.63;79.76;101355.28;5038690;28;20060;-59
2022/08/19 05:43:31;;;;;;;49.30;33.08;;;;;;;17.63;80.83;101357.03;5049227;28;20516;-59
2022/08/19 05:45:58;;;;;;;48.90;33.65;;;;;;;17.61;81.88;101354.41;5051903;28;20127;-61
2022/08/19 05:48:23;;;;;;;50.70;33.83;;;;;;;17.63;81.60;101351.78;5048608;28;20104;-59
2022/08/19 05:50:50;;;;;;;51.33;34.15;;;;;;;17.64;81.47;101357.06;5040671;28;20090;-59
2022/08/19 05:53:16;;;;;;;54.28;35.30;;;;;;;17.63;82.24;101360.53;5044631;28;20013;-59
2022/08/19 05:55:41;;;;;;;58.90;37.13;;;;;;;17.65;82.30;101360.56;5051077;28;20035;-59
2022/08/19 05:58:09;;;;;;;60.38;36.88;;;;;;;17.65;83.13;101352.66;5051385;28;20128;-59
2022/08/19 06:00:36;;;;;;;58.08;37.33;;;;;;;17.66;82.42;101360.56;5050591;28;20029;-60
2022/08/19 06:03:03;;;;;;;59.28;37.13;;;;;;;17.68;82.35;101344.75;5047132;28;20488;-60
2022/08/19 06:05:30;;;;;;;57.85;36.95;;;;;;;17.70;82.80;101340.38;5031410;28;20107;-60
2022/08/19 06:07:55;;;;;;;61.90;38.33;;;;;;;17.68;83.06;101343.00;5050224;28;20048;-61
2022/08/19 06:10:21;;;;;;;58.97;37.67;;;;;;;17.71;82.43;101348.28;5039494;28;20025;-60
2022/08/19 06:12:48;;;;;;;58.90;37.50;;;;;;;17.72;83.20;101341.25;5048117;28;21393;-60
2022/08/19 06:15:14;;;;;;;56.90;36.83;;;;;;;17.74;82.95;101339.47;5045438;28;20013;-60
2022/08/19 06:17:41;;;;;;;61.75;38.15;;;;;;;17.76;82.48;101334.25;5045316;28;20029;-60
2022/08/19 06:20:13;;;;;;;60.85;37.40;;;;;;;17.76;83.00;101340.38;5050206;28;20029;-60
2022/08/19 06:22:40;;;;;;;60.08;37.90;;;;;;;17.77;83.20;101342.16;5046079;28;20029;-60
2022/08/19 06:25:06;;;;;;;65.68;38.42;;;;;;;17.77;83.58;101343.88;5047168;28;20488;-60
2022/08/19 06:27:32;;;;;;;61.72;37.30;;;;;;;17.80;82.97;101338.59;5049615;28;20029;-60
2022/08/19 06:29:58;;;;;;;59.25;36.63;;;;;;;17.80;83.55;101341.25;5049781;28;20025;-60
2022/08/19 06:32:23;;;;;;;59.38;36.80;;;;;;;17.76;84.10;101339.50;5048159;28;20495;-60
2022/08/19 06:34:49;;;;;;;57.42;35.47;;;;;;;17.76;85.16;101334.25;5043688;28;20027;-60
2022/08/19 06:37:15;;;;;;;58.83;36.47;;;;;;;17.77;84.92;101334.25;5046133;28;20021;-60
2022/08/19 06:39:42;;;;;;;59.22;35.75;;;;;;;17.80;84.75;101336.88;5041514;28;20048;-60
2022/08/19 06:42:11;;;;;;;59.17;35.63;;;;;;;17.79;84.68;101335.09;5045356;28;20048;-60
2022/08/19 06:44:39;;;;;;;57.80;34.40;;;;;;;17.83;84.70;101342.16;5043389;28;20134;-60
2022/08/19 06:47:07;;;;;;;58.05;34.75;;;;;;;17.83;84.83;101349.16;5036289;28;20029;-60
2022/08/19 06:49:33;;;;;;;61.95;36.17;;;;;;;17.83;85.00;101342.16;5040329;28;20414;-60
2022/08/19 06:51:59;;;;;;;57.00;34.33;;;;;;;17.87;85.15;101343.91;5043234;28;20025;-60
2022/08/19 06:54:26;;;;;;;53.67;32.85;;;;;;;17.92;84.40;101343.94;5041430;28;20028;-60
2022/08/19 06:56:52;;;;;;;54.92;32.80;;;;;;;17.97;84.96;101351.84;5034137;28;20072;-60
2022/08/19 06:59:20;;;;;;;52.17;31.20;;;;;;;18.01;84.93;101343.06;5036030;28;20071;-59
2022/08/19 07:01:52;;;;;;;53.72;32.15;;;;;;;18.07;84.69;101340.44;5043651;28;20081;-59
2022/08/19 07:04:24;;;;;;;54.08;32.55;;;;;;;18.11;85.09;101344.84;5044836;28;20369;-59
2022/08/19 07:06:55;;;;;;;54.78;33.40;;;;;;;18.14;86.02;101342.19;5038798;28;20039;-59
2022/08/19 07:09:21;;;;;;;52.85;31.38;;;;;;;18.19;85.42;101340.44;5031527;28;20390;-60
2022/08/19 07:11:49;;;;;;;50.63;30.08;;;;;;;18.24;86.01;101349.22;5039250;28;20033;-59
2022/08/19 07:14:17;;;;;;;48.85;28.90;;;;;;;18.30;85.72;101340.44;5039153;28;20485;-60
2022/08/19 07:16:45;;;;;;;50.03;30.17;;;;;;;18.34;84.70;101350.09;5037726;28;20029;-59
2022/08/19 07:19:11;;;;;;;50.85;30.42;;;;;;;18.38;85.89;101345.72;5039329;28;20287;-60
2022/08/19 07:21:37;;;;;;;52.28;31.15;;;;;;;18.42;86.27;101358.00;5049296;28;20025;-60
2022/08/19 07:24:03;;;;;;;52.83;31.90;;;;;;;18.46;86.43;101364.19;5035667;28;20070;-60
2022/08/19 07:26:31;;;;;;;47.90;29.73;;;;;;;18.49;85.75;101361.53;5044185;28;20028;-60
2022/08/19 07:28:58;;;;;;;49.40;29.48;;;;;;;18.53;85.92;101363.28;5020574;28;20507;-60
2022/08/19 07:31:26;;;;;;;59.38;34.28;;;;;;;18.55;86.55;101366.81;5048207;28;20028;-59
2022/08/19 07:33:55;;;;;;;58.50;34.67;;;;;;;18.56;86.00;101366.78;5038256;28;20028;-59
2022/08/19 07:36:25;;;;;;;58.83;36.47;;;;;;;18.59;86.19;101372.06;5040742;28;20392;-59
2022/08/19 07:38:53;;;;;;;60.45;37.15;;;;;;;18.62;85.94;101370.31;5036614;28;20021;-59
2022/08/19 07:41:21;;;;;;;55.22;34.67;;;;;;;18.64;85.76;101374.72;5039850;28;20471;-59
2022/08/19 07:43:48;;;;;;;61.20;36.15;;;;;;;18.66;85.76;101378.22;5040547;28;20032;-59
2022/08/19 07:46:15;;;;;;;59.20;36.78;;;;;;;18.67;85.92;101379.09;5039080;28;20029;-59
2022/08/19 07:48:43;;;;;;;59.58;37.35;;;;;;;18.67;86.67;101379.09;5036453;28;20113;-59
2022/08/19 07:51:10;;;;;;;61.55;40.33;;;;;;;18.67;86.47;101385.28;5044229;28;20730;-59
2022/08/19 07:53:37;;;;;;;64.25;39.15;;;;;;;18.69;86.12;101393.19;5038707;28;20400;-59
2022/08/19 07:56:03;;;;;;;61.30;38.75;;;;;;;18.70;86.03;101397.59;5042085;28;20101;-60
2022/08/19 07:58:35;;;;;;;67.60;41.33;;;;;;;18.70;85.90;101397.59;5041064;28;20060;-60
2022/08/19 08:01:02;;;;;;;62.58;39.33;;;;;;;18.71;85.85;101391.41;5042009;28;20121;-60
2022/08/19 08:09:11;;;;;;;62.95;39.42;;;;;;;18.80;86.48;101401.97;5038362;28;20499;-59
2022/08/19 08:11:48;;;;;;;64.15;41.85;;;;;;;18.81;86.33;101392.28;5045246;28;20025;-59
2022/08/19 08:14:15;;;;;;;65.70;42.40;;;;;;;18.81;86.35;101398.44;5047703;28;20100;-59
2022/08/19 08:16:41;;;;;;;67.57;40.42;;;;;;;18.83;86.31;101396.69;5044921;28;20404;-59
2022/08/19 08:19:07;;;;;;;68.05;42.42;;;;;;;18.86;86.47;101407.28;5045746;28;20025;-59
2022/08/19 08:21:33;;;;;;;66.18;41.15;;;;;;;18.87;86.64;101405.50;5045118;28;20029;-60
2022/08/19 08:23:58;;;;;;;66.15;40.08;;;;;;;18.89;86.00;101404.63;5039131;28;20028;-57
2022/08/19 08:26:24;;;;;;;62.13;39.47;;;;;;;18.92;85.75;101406.38;5040958;28;20025;-57
2022/08/19 08:28:51;;;;;;;59.40;35.45;;;;;;;18.96;83.89;101409.88;5038371;28;20025;-58
2022/08/19 08:31:18;;;;;;;59.88;36.95;;;;;;;19.00;84.77;101415.19;5040577;28;20029;-57
2022/08/19 08:33:44;;;;;;;58.90;38.67;;;;;;;19.03;84.97;101415.19;5042122;28;20400;-58
2022/08/19 08:36:11;;;;;;;63.75;40.90;;;;;;;19.08;84.65;101413.38;5042807;28;20057;-58
2022/08/19 08:38:38;;;;;;;59.00;38.83;;;;;;;19.11;85.01;101418.66;5040661;28;20104;-57
2022/08/19 08:41:31;;;;;;;60.38;38.42;;;;;;;19.16;85.28;101420.41;5035453;28;20061;-58
2022/08/19 08:43:57;;;;;;;55.78;33.13;;;;;;;19.20;84.56;101428.31;5010992;28;20052;-59
2022/08/19 08:46:33;;;;;;;48.10;32.67;;;;;;;19.24;83.74;101435.34;5040315;28;20041;-57
2022/08/19 08:49:11;;;;;;;52.28;34.20;;;;;;;19.25;83.93;101437.13;5035215;28;20229;-57
2022/08/19 08:51:47;;;;;;;51.38;33.75;;;;;;;19.29;84.24;101443.25;5035264;28;20033;-57
2022/08/19 08:54:17;;;;;;;49.60;32.88;;;;;;;19.34;83.43;101430.06;5036905;28;20031;-57
2022/08/19 08:56:44;;;;;;;48.70;31.20;;;;;;;19.38;84.62;101430.03;5048971;28;20017;-58
2022/08/19 08:59:32;;;;;;;49.42;31.50;;;;;;;19.43;83.54;101424.72;5035766;28;20518;-57
2022/08/19 09:01:57;;;;;;;48.50;31.15;;;;;;;19.48;84.09;101416.78;5038291;28;20480;-57
2022/08/19 09:04:23;;;;;;;43.30;29.27;;;;;;;19.49;83.01;101419.41;5017350;28;20633;-57
2022/08/19 09:06:58;;;;;;;49.40;32.53;;;;;;;19.51;83.60;101416.75;5038701;28;20029;-57
2022/08/19 09:09:32;;;;;;;45.00;31.35;;;;;;;19.53;82.76;101413.22;5037570;28;20041;-59
2022/08/19 09:12:17;;;;;;;44.72;31.17;;;;;;;19.58;82.35;101414.09;5042752;28;20028;-58
2022/08/19 09:14:48;;;;;;;53.83;34.20;;;;;;;19.61;83.49;101418.47;5039993;28;20583;-58
2022/08/19 09:17:14;;;;;;;47.63;32.40;;;;;;;19.64;82.76;101423.78;5046750;28;20100;-58
2022/08/19 09:20:06;;;;;;;48.47;32.38;;;;;;;19.69;82.90;101423.75;5047771;28;20026;-58
2022/08/19 09:22:32;;;;;;;47.17;31.98;;;;;;;19.73;82.95;101425.50;5041401;28;20050;-58
2022/08/19 09:24:57;;;;;;;47.97;31.77;;;;;;;19.75;82.51;101429.00;5041959;28;20037;-58
2022/08/19 09:27:24;;;;;;;53.95;34.45;;;;;;;19.78;82.47;101431.63;5032822;28;20032;-58
2022/08/19 09:29:51;;;;;;;46.05;32.38;;;;;;;19.79;82.29;101431.63;5046716;28;20062;-58
2022/08/19 09:32:17;;;;;;;48.88;30.08;;;;;;;19.82;81.73;101435.19;5045447;28;20043;-58
2022/08/19 09:34:43;;;;;;;48.00;30.25;;;;;;;19.79;80.95;101431.63;5049810;28;20087;-58
2022/08/19 09:37:09;;;;;;;48.58;32.75;;;;;;;19.82;81.51;101436.03;5030448;28;20032;-58
2022/08/19 09:39:35;;;;;;;49.97;33.00;;;;;;;19.84;81.44;101443.97;5039210;28;20540;-58
2022/08/19 09:42:00;;;;;;;50.55;33.03;;;;;;;19.85;81.75;101440.44;5052056;28;20067;-58
2022/08/19 09:44:26;;;;;;;52.33;32.67;;;;;;;19.84;81.09;101430.75;5051153;28;20484;-58
2022/08/19 09:46:51;;;;;;;49.88;34.25;;;;;;;19.87;82.01;101430.72;5045452;28;20052;-58
2022/08/19 09:49:18;;;;;;;56.67;34.08;;;;;;;19.91;82.45;101438.63;5051167;28;20082;-58
2022/08/19 09:51:44;;;;;;;53.17;34.72;;;;;;;19.95;81.44;101434.22;5043381;28;20021;-57
2022/08/19 09:54:09;;;;;;;51.08;33.30;;;;;;;19.98;81.50;101440.34;5038146;28;20032;-57
2022/08/19 09:56:34;;;;;;;49.97;32.80;;;;;;;19.97;80.58;101440.34;5039951;28;20108;-58
2022/08/19 09:59:03;;;;;;;49.38;33.58;;;;;;;19.97;81.07;101443.91;5039683;28;20397;-58
2022/08/19 10:01:30;;;;;;;51.92;32.75;;;;;;;20.00;80.31;101434.19;5041425;28;20075;-58
2022/08/19 10:03:57;;;;;;;48.28;32.47;;;;;;;20.02;80.91;101446.50;5039403;28;20029;-58
2022/08/19 10:06:25;;;;;;;50.05;33.85;;;;;;;20.02;80.54;101448.28;5048987;28;20068;-57
2022/08/19 10:08:52;;;;;;;53.05;33.80;;;;;;;20.05;81.09;101448.28;5049855;28;20055;-59
2022/08/19 10:11:19;;;;;;;51.42;34.15;;;;;;;20.08;81.01;101450.91;5034755;28;20028;-60
2022/08/19 10:13:44;;;;;;;51.55;34.20;;;;;;;20.10;80.63;101450.00;5041130;28;20021;-59
2022/08/19 10:16:17;;;;;;;55.63;34.08;;;;;;;20.11;81.00;101454.38;5037990;28;20078;-55
2022/08/19 10:18:43;;;;;;;47.50;32.13;;;;;;;20.13;80.68;101449.97;5040400;28;20029;-55
2022/08/19 10:21:15;;;;;;;50.15;33.30;;;;;;;20.18;80.83;101443.78;5042123;28;20064;-55
2022/08/19 10:23:45;;;;;;;54.80;34.28;;;;;;;20.24;80.62;101443.72;5040302;28;20028;-55
2022/08/19 10:26:15;;;;;;;50.60;32.67;;;;;;;20.29;81.47;101439.28;5039275;28;20032;-55
2022/08/19 10:28:40;;;;;;;52.95;33.92;;;;;;;20.34;80.66;101442.78;5041815;28;20025;-56
2022/08/19 10:31:26;;;;;;;49.55;33.35;;;;;;;20.40;80.71;101436.56;5050116;28;20044;-55
2022/08/19 10:33:57;;;;;;;49.08;32.67;;;;;;;20.43;80.22;101447.13;5044946;28;20028;-55
2022/08/19 10:36:29;;;;;;;50.72;32.75;;;;;;;20.46;79.61;101441.78;5042634;28;20544;-55
2022/08/19 10:38:58;;;;;;;50.50;31.92;;;;;;;20.48;79.62;101445.31;5041419;28;20040;-55
2022/08/19 10:41:26;;;;;;;49.60;31.33;;;;;;;20.50;80.13;101446.19;5037328;28;20050;-55
2022/08/19 10:43:54;;;;;;;43.90;29.73;;;;;;;20.54;79.51;101447.91;5037072;28;20264;-55
2022/08/19 10:46:21;;;;;;;47.88;31.20;;;;;;;20.58;79.81;101441.72;5040508;28;20396;-59
2022/08/19 10:48:47;;;;;;;47.17;30.77;;;;;;;20.62;79.23;101435.50;5041542;28;20068;-59
2022/08/19 10:53:56;;;;;;;45.30;30.30;;;;;;;20.67;79.21;101428.41;5042017;28;20063;-59
2022/08/19 10:59:07;;;;;;;46.85;29.20;;;;;;;20.77;77.67;101436.25;5039068;28;20099;-59
2022/08/19 11:01:34;;;;;;;42.90;28.58;;;;;;;20.78;77.61;101430.06;5038063;28;20033;-59
2022/08/19 11:04:01;;;;;;;41.10;27.42;;;;;;;20.79;76.99;101426.53;5039460;28;20064;-59
2022/08/19 11:06:27;;;;;;;42.55;29.00;;;;;;;20.81;77.25;101433.59;5039231;28;20086;-59
2022/08/19 11:08:54;;;;;;;41.90;28.38;;;;;;;20.83;77.02;101436.22;5039470;28;20680;-59
2022/08/19 11:11:21;;;;;;;43.47;29.10;;;;;;;20.88;77.18;101436.19;5039294;28;20112;-59
2022/08/19 11:13:47;;;;;;;43.08;29.60;;;;;;;20.91;77.66;101425.53;5038453;28;20502;-59
2022/08/19 11:16:17;;;;;;;41.25;28.60;;;;;;;20.95;77.52;101425.50;5039800;28;20044;-59
2022/08/19 11:18:46;;;;;;;45.53;30.50;;;;;;;21.01;78.07;101424.56;5039411;28;20017;-59
2022/08/19 11:21:24;;;;;;;45.90;30.33;;;;;;;21.06;78.05;101421.84;5047657;28;20032;-59
2022/08/19 11:23:53;;;;;;;43.25;29.77;;;;;;;21.12;77.56;101435.06;5037953;28;20032;-59
2022/08/19 11:26:20;;;;;;;43.50;29.90;;;;;;;21.16;76.77;101428.78;5039550;28;21429;-59
2022/08/19 11:28:46;;;;;;;42.40;27.88;;;;;;;21.21;76.52;101431.41;5041620;28;20411;-59
2022/08/19 11:31:14;;;;;;;42.53;28.77;;;;;;;21.28;77.84;101428.66;5047539;28;20028;-59
2022/08/19 11:33:41;;;;;;;43.67;29.67;;;;;;;21.33;76.72;101418.00;5038707;28;20451;-59